sensor_id;sensor_type;location;lat;lon;timestamp;pressure;altitude;pressure_sealevel;temperature;humidity
12182;BME280;6154;51.550;12.138;2024-02-26T00:04:53;99246.97;;;7.79;61.65
12182;BME280;6154;51.550;12.138;2024-02-26T00:07:41;99232.22;;;7.77;62.24
12182;BME280;6154;51.550;12.138;2024-02-26T00:10:30;99241.28;;;7.73;62.61
12182;BME280;6154;51.550;12.138;2024-02-26T00:13:18;99249.16;;;7.73;61.68
12182;BME280;6154;51.550;12.138;2024-02-26T00:16:08;99245.59;;;7.74;60.58
12182;BME280;6154;51.550;12.138;2024-02-26T00:18:57;99246.59;;;7.71;60.40
12182;BME280;6154;51.550;12.138;2024-02-26T00:21:45;99236.16;;;7.70;60.18
12182;BME280;6154;51.550;12.138;2024-02-26T00:24:34;99239.94;;;7.66;60.48
12182;BME280;6154;51.550;12.138;2024-02-26T00:27:22;99235.84;;;7.62;60.86
12182;BME280;6154;51.550;12.138;2024-02-26T00:30:11;99233.28;;;7.60;59.76
12182;BME280;6154;51.550;12.138;2024-02-26T00:33:01;99226.41;;;7.58;59.17
12182;BME280;6154;51.550;12.138;2024-02-26T00:35:49;99227.72;;;7.50;58.97
12182;BME280;6154;51.550;12.138;2024-02-26T00:38:38;99224.34;;;7.48;59.84
12182;BME280;6154;51.550;12.138;2024-02-26T00:41:27;99224.66;;;7.44;60.42
12182;BME280;6154;51.550;12.138;2024-02-26T00:44:15;99224.53;;;7.45;60.55
12182;BME280;6154;51.550;12.138;2024-02-26T00:47:04;99215.91;;;7.43;60.55
12182;BME280;6154;51.550;12.138;2024-02-26T00:49:54;99228.97;;;7.45;59.76
12182;BME280;6154;51.550;12.138;2024-02-26T00:52:42;99223.81;;;7.43;59.45
12182;BME280;6154;51.550;12.138;2024-02-26T00:55:31;99220.59;;;7.38;59.34
12182;BME280;6154;51.550;12.138;2024-02-26T00:58:19;99216.84;;;7.28;61.43
12182;BME280;6154;51.550;12.138;2024-02-26T01:01:07;99217.88;;;7.26;62.16
12182;BME280;6154;51.550;12.138;2024-02-26T01:03:57;99217.88;;;7.26;62.00
12182;BME280;6154;51.550;12.138;2024-02-26T01:06:47;99217.03;;;7.25;61.99
12182;BME280;6154;51.550;12.138;2024-02-26T01:09:37;99211.13;;;7.22;62.83
12182;BME280;6154;51.550;12.138;2024-02-26T01:12:25;99212.62;;;7.26;62.74
12182;BME280;6154;51.550;12.138;2024-02-26T01:15:14;99207.25;;;7.27;61.75
12182;BME280;6154;51.550;12.138;2024-02-26T01:18:03;99214.41;;;7.25;62.05
12182;BME280;6154;51.550;12.138;2024-02-26T01:20:52;99206.41;;;7.27;62.00
12182;BME280;6154;51.550;12.138;2024-02-26T01:23:42;99205.56;;;7.26;60.85
12182;BME280;6154;51.550;12.138;2024-02-26T01:26:31;99199.72;;;7.21;61.29
12182;BME280;6154;51.550;12.138;2024-02-26T01:29:19;99195.50;;;7.18;61.99
12182;BME280;6154;51.550;12.138;2024-02-26T01:32:08;99201.81;;;7.16;62.29
12182;BME280;6154;51.550;12.138;2024-02-26T01:34:57;99201.81;;;7.16;61.70
12182;BME280;6154;51.550;12.138;2024-02-26T01:37:45;99192.03;;;7.18;61.00
12182;BME280;6154;51.550;12.138;2024-02-26T01:40:35;99193.06;;;7.15;61.37
12182;BME280;6154;51.550;12.138;2024-02-26T01:43:23;99186.28;;;7.11;61.80
12182;BME280;6154;51.550;12.138;2024-02-26T01:46:13;99186.28;;;7.11;61.44
12182;BME280;6154;51.550;12.138;2024-02-26T01:49:02;99183.75;;;7.10;61.15
12182;BME280;6154;51.550;12.138;2024-02-26T01:51:51;99185.63;;;7.08;61.42
12182;BME280;6154;51.550;12.138;2024-02-26T01:54:40;99170.31;;;6.86;62.86
12182;BME280;6154;51.550;12.138;2024-02-26T01:57:30;99176.13;;;6.77;63.82
12182;BME280;6154;51.550;12.138;2024-02-26T02:00:20;99172.00;;;6.73;64.51
12182;BME280;6154;51.550;12.138;2024-02-26T02:03:09;99167.00;;;6.68;64.69
12182;BME280;6154;51.550;12.138;2024-02-26T02:06:04;99175.06;;;6.65;64.84
12182;BME280;6154;51.550;12.138;2024-02-26T02:08:54;99164.84;;;6.75;64.73
12182;BME280;6154;51.550;12.138;2024-02-26T02:11:43;99164.13;;;6.73;64.56
12182;BME280;6154;51.550;12.138;2024-02-26T02:14:33;99162.31;;;6.73;64.53
12182;BME280;6154;51.550;12.138;2024-02-26T02:17:21;99172.84;;;6.73;64.22
12182;BME280;6154;51.550;12.138;2024-02-26T02:20:15;99170.22;;;6.73;64.57
12182;BME280;6154;51.550;12.138;2024-02-26T02:23:05;99164.19;;;6.71;65.02
12182;BME280;6154;51.550;12.138;2024-02-26T02:25:54;99170.37;;;6.70;64.70
12182;BME280;6154;51.550;12.138;2024-02-26T02:28:45;99170.37;;;6.70;64.70
12182;BME280;6154;51.550;12.138;2024-02-26T02:31:34;99166.75;;;6.73;64.07
12182;BME280;6154;51.550;12.138;2024-02-26T02:34:23;99170.13;;;6.75;63.22
12182;BME280;6154;51.550;12.138;2024-02-26T02:37:11;99170.31;;;6.72;62.85
12182;BME280;6154;51.550;12.138;2024-02-26T02:40:01;99164.19;;;6.71;62.63
12182;BME280;6154;51.550;12.138;2024-02-26T02:42:50;99167.69;;;6.72;63.21
12182;BME280;6154;51.550;12.138;2024-02-26T02:45:38;99165.97;;;6.71;63.28
12182;BME280;6154;51.550;12.138;2024-02-26T02:48:26;99168.88;;;6.66;63.65
12182;BME280;6154;51.550;12.138;2024-02-26T02:51:15;99174.88;;;6.68;63.42
12182;BME280;6154;51.550;12.138;2024-02-26T02:54:03;99168.69;;;6.69;62.67
12182;BME280;6154;51.550;12.138;2024-02-26T02:56:53;99174.03;;;6.68;62.05
12182;BME280;6154;51.550;12.138;2024-02-26T02:59:41;99176.75;;;6.66;61.73
12182;BME280;6154;51.550;12.138;2024-02-26T03:02:30;99187.28;;;6.66;61.58
12182;BME280;6154;51.550;12.138;2024-02-26T03:05:18;99188.13;;;6.67;61.44
12182;BME280;6154;51.550;12.138;2024-02-26T03:08:07;99190.75;;;6.67;61.45
12182;BME280;6154;51.550;12.138;2024-02-26T03:10:58;99199.38;;;6.69;61.11
12182;BME280;6154;51.550;12.138;2024-02-26T03:13:48;99203.78;;;6.68;60.67
12182;BME280;6154;51.550;12.138;2024-02-26T03:16:36;99202.09;;;6.67;60.75
12182;BME280;6154;51.550;12.138;2024-02-26T03:19:24;99207.38;;;6.67;60.81
12182;BME280;6154;51.550;12.138;2024-02-26T03:22:13;99211.03;;;6.65;60.80
12182;BME280;6154;51.550;12.138;2024-02-26T03:25:01;99211.03;;;6.65;60.58
12182;BME280;6154;51.550;12.138;2024-02-26T03:27:50;99211.13;;;6.63;60.43
12182;BME280;6154;51.550;12.138;2024-02-26T03:30:39;99207.66;;;6.62;60.26
12182;BME280;6154;51.550;12.138;2024-02-26T03:33:28;99208.66;;;6.60;60.26
12182;BME280;6154;51.550;12.138;2024-02-26T03:36:16;99206.97;;;6.59;60.18
12182;BME280;6154;51.550;12.138;2024-02-26T03:39:05;99211.47;;;6.57;59.93
12182;BME280;6154;51.550;12.138;2024-02-26T03:41:55;99219.44;;;6.55;59.94
12182;BME280;6154;51.550;12.138;2024-02-26T03:44:44;99214.44;;;6.51;60.29
12182;BME280;6154;51.550;12.138;2024-02-26T03:47:33;99214.63;;;6.48;60.23
12182;BME280;6154;51.550;12.138;2024-02-26T03:50:22;99217.25;;;6.48;60.63
12182;BME280;6154;51.550;12.138;2024-02-26T03:53:10;99229.56;;;6.47;61.28
12182;BME280;6154;51.550;12.138;2024-02-26T03:56:06;99227.75;;;6.48;61.58
12182;BME280;6154;51.550;12.138;2024-02-26T03:58:54;99225.31;;;6.45;61.71
12182;BME280;6154;51.550;12.138;2024-02-26T04:01:45;99230.78;;;6.42;61.33
12182;BME280;6154;51.550;12.138;2024-02-26T04:04:35;99242.38;;;6.38;61.44
12182;BME280;6154;51.550;12.138;2024-02-26T04:07:24;99232.13;;;6.33;61.27
12182;BME280;6154;51.550;12.138;2024-02-26T04:10:13;99238.37;;;6.30;60.90
12182;BME280;6154;51.550;12.138;2024-02-26T04:13:01;99225.53;;;6.26;61.37
12182;BME280;6154;51.550;12.138;2024-02-26T04:15:51;99222.91;;;6.10;63.19
12182;BME280;6154;51.550;12.138;2024-02-26T04:18:39;99226.22;;;5.98;64.15
12182;BME280;6154;51.550;12.138;2024-02-26T04:21:29;99229.78;;;5.97;64.39
12182;BME280;6154;51.550;12.138;2024-02-26T04:24:17;99229.78;;;5.97;65.43
12182;BME280;6154;51.550;12.138;2024-02-26T04:27:06;99231.28;;;6.01;66.32
12182;BME280;6154;51.550;12.138;2024-02-26T04:29:54;99228.34;;;6.07;64.62
12182;BME280;6154;51.550;12.138;2024-02-26T04:32:42;99228.34;;;6.07;66.43
12182;BME280;6154;51.550;12.138;2024-02-26T04:35:31;99225.53;;;6.10;67.30
12182;BME280;6154;51.550;12.138;2024-02-26T04:38:21;99223.50;;;6.15;66.92
12182;BME280;6154;51.550;12.138;2024-02-26T04:41:09;99221.72;;;6.16;66.92
12182;BME280;6154;51.550;12.138;2024-02-26T04:43:58;99228.75;;;6.15;67.14
12182;BME280;6154;51.550;12.138;2024-02-26T04:46:46;99226.72;;;6.20;67.08
12182;BME280;6154;51.550;12.138;2024-02-26T04:49:34;99221.63;;;6.17;67.30
12182;BME280;6154;51.550;12.138;2024-02-26T04:52:23;99227.66;;;6.19;66.85
12182;BME280;6154;51.550;12.138;2024-02-26T04:55:13;99228.44;;;6.21;65.33
12182;BME280;6154;51.550;12.138;2024-02-26T04:58:01;99227.66;;;6.19;64.79
12182;BME280;6154;51.550;12.138;2024-02-26T05:00:50;99225.72;;;6.23;64.16
12182;BME280;6154;51.550;12.138;2024-02-26T05:03:39;99234.44;;;6.23;63.60
12182;BME280;6154;51.550;12.138;2024-02-26T05:06:28;99229.09;;;6.25;63.41
12182;BME280;6154;51.550;12.138;2024-02-26T05:09:16;99236.78;;;6.28;63.27
12182;BME280;6154;51.550;12.138;2024-02-26T05:12:07;99241.94;;;6.29;64.11
12182;BME280;6154;51.550;12.138;2024-02-26T05:14:55;99253.41;;;6.28;65.67
12182;BME280;6154;51.550;12.138;2024-02-26T05:17:46;99248.75;;;6.33;64.45
12182;BME280;6154;51.550;12.138;2024-02-26T05:20:34;99256.63;;;6.33;63.82
12182;BME280;6154;51.550;12.138;2024-02-26T05:23:27;99260.09;;;6.34;63.78
12182;BME280;6154;51.550;12.138;2024-02-26T05:26:19;99260.25;;;6.31;65.14
12182;BME280;6154;51.550;12.138;2024-02-26T05:29:09;99259.69;;;6.26;65.84
12182;BME280;6154;51.550;12.138;2024-02-26T05:31:57;99256.19;;;6.25;65.56
12182;BME280;6154;51.550;12.138;2024-02-26T05:34:45;99254.50;;;6.24;65.21
12182;BME280;6154;51.550;12.138;2024-02-26T05:37:34;99253.66;;;6.24;65.17
12182;BME280;6154;51.550;12.138;2024-02-26T05:40:22;99256.38;;;6.22;65.69
12182;BME280;6154;51.550;12.138;2024-02-26T05:43:10;99263.41;;;6.22;65.91
12182;BME280;6154;51.550;12.138;2024-02-26T05:46:02;99254.84;;;6.18;66.50
12182;BME280;6154;51.550;12.138;2024-02-26T05:48:51;99247.37;;;6.11;67.53
12182;BME280;6154;51.550;12.138;2024-02-26T05:51:41;99259.00;;;6.07;68.02
12182;BME280;6154;51.550;12.138;2024-02-26T05:54:29;99254.87;;;6.02;68.23
12182;BME280;6154;51.550;12.138;2024-02-26T05:57:17;99253.75;;;5.91;68.67
12182;BME280;6154;51.550;12.138;2024-02-26T06:00:07;99250.97;;;5.94;68.68
12182;BME280;6154;51.550;12.138;2024-02-26T06:03:01;99255.47;;;5.92;69.40
12182;BME280;6154;51.550;12.138;2024-02-26T06:05:50;99249.84;;;5.98;69.34
12182;BME280;6154;51.550;12.138;2024-02-26T06:08:38;99242.22;;;6.09;69.05
12182;BME280;6154;51.550;12.138;2024-02-26T06:11:27;99244.94;;;6.08;70.56
12182;BME280;6154;51.550;12.138;2024-02-26T06:14:15;99251.19;;;6.21;70.43
12182;BME280;6154;51.550;12.138;2024-02-26T06:17:05;99258.66;;;6.28;70.90
12182;BME280;6154;51.550;12.138;2024-02-26T06:19:55;99261.87;;;6.33;70.79
12182;BME280;6154;51.550;12.138;2024-02-26T06:22:46;99248.22;;;6.43;69.70
12182;BME280;6154;51.550;12.138;2024-02-26T06:25:35;99261.00;;;6.49;68.76
12182;BME280;6154;51.550;12.138;2024-02-26T06:28:23;99266.34;;;6.47;68.55
12182;BME280;6154;51.550;12.138;2024-02-26T06:31:11;99263.47;;;6.52;68.03
12182;BME280;6154;51.550;12.138;2024-02-26T06:33:59;99270.97;;;6.58;68.10
12182;BME280;6154;51.550;12.138;2024-02-26T06:36:50;99274.12;;;6.65;67.74
12182;BME280;6154;51.550;12.138;2024-02-26T06:39:38;99268.47;;;6.71;67.83
12182;BME280;6154;51.550;12.138;2024-02-26T06:42:28;99278.66;;;6.77;67.51
12182;BME280;6154;51.550;12.138;2024-02-26T06:45:17;99287.88;;;6.84;67.35
12182;BME280;6154;51.550;12.138;2024-02-26T06:48:07;99280.75;;;6.86;67.46
12182;BME280;6154;51.550;12.138;2024-02-26T06:50:55;99284.63;;;6.95;66.80
12182;BME280;6154;51.550;12.138;2024-02-26T06:53:45;99285.37;;;6.97;66.29
12182;BME280;6154;51.550;12.138;2024-02-26T06:56:33;99291.13;;;7.03;65.95
12182;BME280;6154;51.550;12.138;2024-02-26T06:59:22;99296.84;;;7.10;65.93
12182;BME280;6154;51.550;12.138;2024-02-26T07:02:10;99299.03;;;7.17;66.07
12182;BME280;6154;51.550;12.138;2024-02-26T07:04:59;99299.34;;;7.27;65.94
12182;BME280;6154;51.550;12.138;2024-02-26T07:07:47;99302.16;;;7.38;65.55
12182;BME280;6154;51.550;12.138;2024-02-26T07:10:37;99306.13;;;7.45;65.58
12182;BME280;6154;51.550;12.138;2024-02-26T07:13:26;99310.00;;;7.54;65.55
12182;BME280;6154;51.550;12.138;2024-02-26T07:16:14;99308.41;;;7.66;65.46
12182;BME280;6154;51.550;12.138;2024-02-26T07:19:03;99309.22;;;7.81;65.65
12182;BME280;6154;51.550;12.138;2024-02-26T07:21:51;99311.47;;;8.01;65.35
12182;BME280;6154;51.550;12.138;2024-02-26T07:24:40;99313.25;;;8.15;65.63
12182;BME280;6154;51.550;12.138;2024-02-26T07:27:30;99309.47;;;8.33;65.51
12182;BME280;6154;51.550;12.138;2024-02-26T07:30:19;99310.94;;;8.51;65.70
12182;BME280;6154;51.550;12.138;2024-02-26T07:33:07;99311.25;;;8.74;65.46
12182;BME280;6154;51.550;12.138;2024-02-26T07:35:56;99312.69;;;8.92;65.36
12182;BME280;6154;51.550;12.138;2024-02-26T07:38:44;99307.19;;;9.08;65.42
12182;BME280;6154;51.550;12.138;2024-02-26T07:41:33;99303.31;;;9.13;65.65
12182;BME280;6154;51.550;12.138;2024-02-26T07:44:22;99311.25;;;9.26;65.42
12182;BME280;6154;51.550;12.138;2024-02-26T07:47:11;99306.06;;;9.25;66.17
12182;BME280;6154;51.550;12.138;2024-02-26T07:50:00;99312.31;;;9.24;67.40
12182;BME280;6154;51.550;12.138;2024-02-26T07:52:48;99305.66;;;9.31;67.26
12182;BME280;6154;51.550;12.138;2024-02-26T07:55:38;99301.25;;;9.44;67.22
12182;BME280;6154;51.550;12.138;2024-02-26T07:58:26;99305.88;;;9.66;66.72
12182;BME280;6154;51.550;12.138;2024-02-26T08:01:16;99302.25;;;9.79;67.41
12182;BME280;6154;51.550;12.138;2024-02-26T08:04:05;99299.06;;;10.00;67.84
12182;BME280;6154;51.550;12.138;2024-02-26T08:06:53;99303.44;;;10.38;67.16
12182;BME280;6154;51.550;12.138;2024-02-26T08:09:42;99306.25;;;10.71;67.24
12182;BME280;6154;51.550;12.138;2024-02-26T08:12:30;99307.37;;;11.04;65.82
12182;BME280;6154;51.550;12.138;2024-02-26T08:15:19;99316.25;;;11.38;64.82
12182;BME280;6154;51.550;12.138;2024-02-26T08:18:08;99314.72;;;11.58;64.82
12182;BME280;6154;51.550;12.138;2024-02-26T08:20:57;99313.06;;;11.79;63.83
12182;BME280;6154;51.550;12.138;2024-02-26T08:23:45;99319.84;;;11.94;63.69
12182;BME280;6154;51.550;12.138;2024-02-26T08:26:34;99314.03;;;12.00;63.31
12182;BME280;6154;51.550;12.138;2024-02-26T08:29:22;99318.38;;;12.35;63.22
12182;BME280;6154;51.550;12.138;2024-02-26T08:32:11;99316.28;;;12.50;62.71
12182;BME280;6154;51.550;12.138;2024-02-26T08:35:01;99317.66;;;12.76;62.06
12182;BME280;6154;51.550;12.138;2024-02-26T08:37:51;99325.28;;;12.70;62.25
12182;BME280;6154;51.550;12.138;2024-02-26T08:40:40;99332.84;;;12.85;61.83
12182;BME280;6154;51.550;12.138;2024-02-26T08:43:28;99326.16;;;12.91;61.32
12182;BME280;6154;51.550;12.138;2024-02-26T08:46:18;99328.69;;;12.92;61.35
12182;BME280;6154;51.550;12.138;2024-02-26T08:49:06;99333.41;;;12.89;61.05
12182;BME280;6154;51.550;12.138;2024-02-26T08:51:56;99320.34;;;12.97;61.02
12182;BME280;6154;51.550;12.138;2024-02-26T08:54:45;99335.59;;;13.16;61.08
12182;BME280;6154;51.550;12.138;2024-02-26T08:57:33;99337.56;;;13.14;61.18
12182;BME280;6154;51.550;12.138;2024-02-26T09:00:22;99335.19;;;13.32;60.34
12182;BME280;6154;51.550;12.138;2024-02-26T09:03:10;99345.81;;;13.52;60.44
12182;BME280;6154;51.550;12.138;2024-02-26T09:05:59;99336.97;;;13.63;60.41
12182;BME280;6154;51.550;12.138;2024-02-26T09:08:49;99338.81;;;13.72;60.18
12182;BME280;6154;51.550;12.138;2024-02-26T09:11:37;99329.87;;;13.73;60.04
12182;BME280;6154;51.550;12.138;2024-02-26T09:14:26;99330.13;;;13.70;60.07
12182;BME280;6154;51.550;12.138;2024-02-26T09:17:15;99334.59;;;13.70;60.04
12182;BME280;6154;51.550;12.138;2024-02-26T09:20:04;99332.28;;;13.76;60.23
12182;BME280;6154;51.550;12.138;2024-02-26T09:22:53;99335.25;;;13.93;59.88
12182;BME280;6154;51.550;12.138;2024-02-26T09:25:43;99336.88;;;14.05;59.76
12182;BME280;6154;51.550;12.138;2024-02-26T09:28:31;99335.22;;;14.04;59.28
12182;BME280;6154;51.550;12.138;2024-02-26T09:31:24;99338.84;;;14.03;59.08
12182;BME280;6154;51.550;12.138;2024-02-26T09:34:12;99333.81;;;14.09;58.94
12182;BME280;6154;51.550;12.138;2024-02-26T09:37:01;99334.50;;;14.12;59.24
12182;BME280;6154;51.550;12.138;2024-02-26T09:40:02;99337.53;;;14.28;59.33
12182;BME280;6154;51.550;12.138;2024-02-26T09:42:55;99343.28;;;14.23;58.62
12182;BME280;6154;51.550;12.138;2024-02-26T09:45:52;99344.09;;;14.24;58.73
12182;BME280;6154;51.550;12.138;2024-02-26T09:48:42;99333.22;;;14.36;59.29
12182;BME280;6154;51.550;12.138;2024-02-26T09:51:32;99337.06;;;14.23;58.82
12182;BME280;6154;51.550;12.138;2024-02-26T09:54:20;99335.59;;;14.39;58.95
12182;BME280;6154;51.550;12.138;2024-02-26T09:57:11;99330.97;;;14.42;58.30
12182;BME280;6154;51.550;12.138;2024-02-26T10:00:08;99342.97;;;14.57;58.29
12182;BME280;6154;51.550;12.138;2024-02-26T10:03:01;99345.78;;;14.65;57.81
12182;BME280;6154;51.550;12.138;2024-02-26T10:05:51;99339.06;;;14.80;57.20
12182;BME280;6154;51.550;12.138;2024-02-26T10:08:43;99339.25;;;14.98;57.99
12182;BME280;6154;51.550;12.138;2024-02-26T10:11:32;99336.13;;;14.93;56.96
12182;BME280;6154;51.550;12.138;2024-02-26T10:14:23;99338.69;;;15.14;57.25
12182;BME280;6154;51.550;12.138;2024-02-26T10:17:13;99340.63;;;15.31;57.40
12182;BME280;6154;51.550;12.138;2024-02-26T10:20:15;99343.03;;;15.53;57.15
12182;BME280;6154;51.550;12.138;2024-02-26T10:23:05;99343.72;;;15.65;55.70
12182;BME280;6154;51.550;12.138;2024-02-26T10:25:54;99342.28;;;15.71;56.30
12182;BME280;6154;51.550;12.138;2024-02-26T10:28:43;99350.16;;;15.72;55.59
12182;BME280;6154;51.550;12.138;2024-02-26T10:31:34;99341.00;;;15.85;56.00
12182;BME280;6154;51.550;12.138;2024-02-26T10:34:24;99339.41;;;15.92;56.10
12182;BME280;6154;51.550;12.138;2024-02-26T10:37:13;99341.72;;;15.77;55.88
12182;BME280;6154;51.550;12.138;2024-02-26T10:40:02;99344.09;;;15.80;54.56
12182;BME280;6154;51.550;12.138;2024-02-26T10:42:51;99343.06;;;16.00;55.84
12182;BME280;6154;51.550;12.138;2024-02-26T10:45:40;99342.19;;;16.09;55.74
12182;BME280;6154;51.550;12.138;2024-02-26T10:48:30;99341.88;;;16.13;55.17
12182;BME280;6154;51.550;12.138;2024-02-26T10:51:23;99342.72;;;16.13;55.05
12182;BME280;6154;51.550;12.138;2024-02-26T10:54:16;99350.88;;;16.12;53.95
12182;BME280;6154;51.550;12.138;2024-02-26T10:57:05;99344.22;;;16.25;55.08
12182;BME280;6154;51.550;12.138;2024-02-26T10:59:54;99349.69;;;16.33;54.74
12182;BME280;6154;51.550;12.138;2024-02-26T11:02:45;99352.19;;;16.35;54.83
12182;BME280;6154;51.550;12.138;2024-02-26T11:05:36;99353.03;;;16.35;54.15
12182;BME280;6154;51.550;12.138;2024-02-26T11:08:28;99362.88;;;16.35;54.35
12182;BME280;6154;51.550;12.138;2024-02-26T11:11:17;99361.47;;;16.31;54.09
12182;BME280;6154;51.550;12.138;2024-02-26T11:14:08;99356.94;;;16.41;54.46
12182;BME280;6154;51.550;12.138;2024-02-26T11:16:57;99360.06;;;16.36;53.62
12182;BME280;6154;51.550;12.138;2024-02-26T11:19:46;99359.56;;;16.51;54.29
12182;BME280;6154;51.550;12.138;2024-02-26T11:22:38;99359.41;;;16.52;53.80
12182;BME280;6154;51.550;12.138;2024-02-26T11:25:27;99353.78;;;16.55;54.15
12182;BME280;6154;51.550;12.138;2024-02-26T11:28:17;99359.50;;;16.60;53.99
12182;BME280;6154;51.550;12.138;2024-02-26T11:31:07;99355.41;;;16.66;54.00
12182;BME280;6154;51.550;12.138;2024-02-26T11:33:56;99354.13;;;16.70;54.10
12182;BME280;6154;51.550;12.138;2024-02-26T11:36:45;99349.72;;;16.79;54.24
12182;BME280;6154;51.550;12.138;2024-02-26T11:39:34;99344.63;;;16.85;53.96
12182;BME280;6154;51.550;12.138;2024-02-26T11:42:24;99346.31;;;16.86;53.67
12182;BME280;6154;51.550;12.138;2024-02-26T11:45:53;99333.62;;;16.88;53.79
12182;BME280;6154;51.550;12.138;2024-02-26T11:48:46;99332.31;;;16.92;51.46
12182;BME280;6154;51.550;12.138;2024-02-26T11:51:35;99327.59;;;17.04;54.14
12182;BME280;6154;51.550;12.138;2024-02-26T11:54:40;99331.31;;;17.11;53.99
12182;BME280;6154;51.550;12.138;2024-02-26T11:57:38;99326.22;;;17.00;51.53
12182;BME280;6154;51.550;12.138;2024-02-26T12:00:26;99327.69;;;16.94;52.57
12182;BME280;6154;51.550;12.138;2024-02-26T12:03:20;99322.53;;;17.01;53.41
12182;BME280;6154;51.550;12.138;2024-02-26T12:06:09;99319.19;;;16.99;53.52
12182;BME280;6154;51.550;12.138;2024-02-26T12:09:00;99319.78;;;16.93;52.34
12182;BME280;6154;51.550;12.138;2024-02-26T12:11:49;99320.28;;;17.06;53.58
12182;BME280;6154;51.550;12.138;2024-02-26T12:14:40;99315.97;;;17.13;53.58
12182;BME280;6154;51.550;12.138;2024-02-26T12:17:28;99325.84;;;16.95;51.27
12182;BME280;6154;51.550;12.138;2024-02-26T12:20:18;99326.91;;;17.02;52.31
12182;BME280;6154;51.550;12.138;2024-02-26T12:23:07;99323.94;;;17.05;53.11
12182;BME280;6154;51.550;12.138;2024-02-26T12:25:58;99325.63;;;17.06;53.26
12182;BME280;6154;51.550;12.138;2024-02-26T12:28:47;99326.22;;;17.18;53.60
12182;BME280;6154;51.550;12.138;2024-02-26T12:31:37;99325.81;;;17.13;53.49
12182;BME280;6154;51.550;12.138;2024-02-26T12:34:27;99321.63;;;17.10;53.36
12182;BME280;6154;51.550;12.138;2024-02-26T12:37:16;99326.38;;;17.16;53.26
12182;BME280;6154;51.550;12.138;2024-02-26T12:40:05;99328.13;;;16.90;52.29
12182;BME280;6154;51.550;12.138;2024-02-26T12:42:55;99339.88;;;16.79;52.50
12182;BME280;6154;51.550;12.138;2024-02-26T12:45:44;99333.69;;;16.79;53.25
12182;BME280;6154;51.550;12.138;2024-02-26T12:48:35;99343.47;;;16.88;52.90
12182;BME280;6154;51.550;12.138;2024-02-26T12:51:23;99336.75;;;16.84;53.24
12182;BME280;6154;51.550;12.138;2024-02-26T12:54:13;99350.41;;;16.81;53.10
12182;BME280;6154;51.550;12.138;2024-02-26T12:57:03;99353.06;;;16.81;52.99
12182;BME280;6154;51.550;12.138;2024-02-26T12:59:54;99366.59;;;16.79;52.87
12182;BME280;6154;51.550;12.138;2024-02-26T13:02:42;99357.81;;;16.69;53.48
12182;BME280;6154;51.550;12.138;2024-02-26T13:05:33;99355.75;;;16.81;53.82
12182;BME280;6154;51.550;12.138;2024-02-26T13:08:23;99365.50;;;16.72;52.78
12182;BME280;6154;51.550;12.138;2024-02-26T13:11:12;99365.75;;;16.79;52.94
12182;BME280;6154;51.550;12.138;2024-02-26T13:14:00;99367.38;;;16.89;53.19
12182;BME280;6154;51.550;12.138;2024-02-26T13:16:55;99380.06;;;16.87;53.29
12182;BME280;6154;51.550;12.138;2024-02-26T13:19:50;99386.75;;;16.74;53.07
12182;BME280;6154;51.550;12.138;2024-02-26T13:22:40;99385.88;;;16.73;52.39
12182;BME280;6154;51.550;12.138;2024-02-26T13:25:29;99398.34;;;16.82;53.27
12182;BME280;6154;51.550;12.138;2024-02-26T13:28:18;99401.38;;;16.97;53.07
12182;BME280;6154;51.550;12.138;2024-02-26T13:31:08;99401.28;;;16.89;53.73
12182;BME280;6154;51.550;12.138;2024-02-26T13:33:57;99401.38;;;16.97;52.70
12182;BME280;6154;51.550;12.138;2024-02-26T13:36:45;99403.56;;;16.84;53.58
12182;BME280;6154;51.550;12.138;2024-02-26T13:39:35;99400.41;;;17.16;53.70
12182;BME280;6154;51.550;12.138;2024-02-26T13:42:28;99403.00;;;17.26;53.33
12182;BME280;6154;51.550;12.138;2024-02-26T13:45:16;99405.53;;;17.45;52.80
12182;BME280;6154;51.550;12.138;2024-02-26T13:48:06;99410.25;;;17.51;51.67
12182;BME280;6154;51.550;12.138;2024-02-26T13:50:57;99404.22;;;17.85;52.85
12182;BME280;6154;51.550;12.138;2024-02-26T13:53:46;99410.84;;;18.24;52.21
12182;BME280;6154;51.550;12.138;2024-02-26T13:56:36;99408.94;;;18.51;51.99
12182;BME280;6154;51.550;12.138;2024-02-26T13:59:24;99418.69;;;18.60;51.13
12182;BME280;6154;51.550;12.138;2024-02-26T14:02:13;99421.16;;;18.45;51.17
12182;BME280;6154;51.550;12.138;2024-02-26T14:05:01;99417.50;;;18.20;51.56
12182;BME280;6154;51.550;12.138;2024-02-26T14:07:52;99434.81;;;18.08;51.81
12182;BME280;6154;51.550;12.138;2024-02-26T14:10:41;99437.22;;;17.93;51.21
12182;BME280;6154;51.550;12.138;2024-02-26T14:13:30;99439.44;;;17.98;52.30
12182;BME280;6154;51.550;12.138;2024-02-26T14:16:22;99437.94;;;18.03;52.36
12182;BME280;6154;51.550;12.138;2024-02-26T14:19:10;99438.13;;;18.02;52.36
12182;BME280;6154;51.550;12.138;2024-02-26T14:22:02;99445.78;;;17.97;51.05
12182;BME280;6154;51.550;12.138;2024-02-26T14:24:50;99453.44;;;17.92;51.81
12182;BME280;6154;51.550;12.138;2024-02-26T14:27:39;99460.78;;;17.90;52.25
12182;BME280;6154;51.550;12.138;2024-02-26T14:30:28;99452.41;;;17.85;52.59
12182;BME280;6154;51.550;12.138;2024-02-26T14:33:17;99459.19;;;17.97;52.35
12182;BME280;6154;51.550;12.138;2024-02-26T14:36:06;99460.53;;;18.01;52.19
12182;BME280;6154;51.550;12.138;2024-02-26T14:38:55;99458.84;;;18.00;52.42
12182;BME280;6154;51.550;12.138;2024-02-26T14:41:45;99461.72;;;17.80;52.16
12182;BME280;6154;51.550;12.138;2024-02-26T14:44:33;99460.25;;;17.68;52.24
12182;BME280;6154;51.550;12.138;2024-02-26T14:47:25;99464.06;;;17.48;52.44
12182;BME280;6154;51.550;12.138;2024-02-26T14:50:14;99466.28;;;17.52;52.39
12182;BME280;6154;51.550;12.138;2024-02-26T14:53:03;99466.44;;;17.51;52.39
12182;BME280;6154;51.550;12.138;2024-02-26T14:55:51;99472.78;;;17.50;52.46
12182;BME280;6154;51.550;12.138;2024-02-26T14:58:40;99473.53;;;17.42;52.51
12182;BME280;6154;51.550;12.138;2024-02-26T15:01:28;99471.31;;;17.38;52.46
12182;BME280;6154;51.550;12.138;2024-02-26T15:04:18;99471.28;;;17.20;52.84
12182;BME280;6154;51.550;12.138;2024-02-26T15:07:07;99479.31;;;16.92;52.11